Iwami current weather conditions

sailwx.info

Wind from 020 at 7 knots

Air temperature 6.0° C
Visibility: greater than 5.4 NM
Dewpoint -1.0° C

Last reported at 2016-Feb-07 07:00 UTC.
Time now 2016-Feb-07 08:31 UTC

Location: N 34°41' E 131°47'.
View on Google Maps.

See reports from other nearby stations

  
Tides and Currents Weather Stations Pressure Air Temp Water Temp Dewpoint Dewpoint Depression Visibility Wind Speed Wind Dir Waves Ship Positions
date/time (UTC)wind fromknots sea level pressurealtimeterstation pressurevisibilityair tempwater tempwave heightnotes
2016-Feb-07 07:00 020 7 5.4 6.0
2016-Feb-07 06:00 020 7 5.4 6.0
2016-Feb-07 05:00 020 6 5.4 6.0
2016-Feb-07 04:00 010 5 5.4 5.0
2016-Feb-07 03:00 060 6 5.4 5.0
2016-Feb-07 02:00 080 7 5.4 4.0
2016-Feb-07 01:00 090 9 5.4 3.0
2016-Feb-07 00:00 090 8 5.4 3.0 Light rain showers.
2016-Feb-06 23:00 110 4 5.4 1.0 Light snow showers.
2016-Feb-06 10:00 300 13 5.4 5.0
2016-Feb-06 09:00 260 10 5.4 4.0
2016-Feb-06 08:00 290 8 5.4 4.0 Light rain showers.
2016-Feb-06 07:00 280 11 5.4 5.0 Showers in the vicinity.
2016-Feb-06 06:00 280 11 5.4 5.0 Showers in the vicinity.
2016-Feb-06 05:00 280 9 5.4 6.0 Light rain showers.
2016-Feb-06 04:00 260 10 5.4 5.0 Light rain showers.
2016-Feb-06 03:00 280 10 5.4 6.0 Showers in the vicinity.
2016-Feb-06 02:00 290 11 5.4 6.0
2016-Feb-06 01:00 290 10 5.4 5.0 Showers in the vicinity.
2016-Feb-06 00:00 300 9 5.4 5.0 Showers in the vicinity.
2016-Feb-05 23:00 270 10 5.4 5.0 Showers in the vicinity.
2016-Feb-05 10:00 210 5 5.4 3.0
2016-Feb-05 09:00 240 5 5.4 6.0
2016-Feb-05 08:00 270 7 5.4 8.0